createdAt,value
2023-04-07T00:00:10.919Z,1.45
2023-04-07T00:02:44.637Z,1.42
2023-04-07T00:05:14.172Z,0.70
2023-04-07T00:07:52.937Z,1.02
2023-04-07T00:10:25.987Z,1.70
2023-04-07T00:12:55.137Z,0.60
2023-04-07T00:15:24.388Z,2.30
2023-04-07T00:17:53.805Z,0.63
2023-04-07T00:20:23.235Z,1.40
2023-04-07T00:22:53.865Z,0.50
2023-04-07T00:25:23.078Z,0.70
2023-04-07T00:27:52.319Z,0.77
2023-04-07T00:30:21.968Z,0.73
2023-04-07T00:32:51.897Z,0.45
2023-04-07T00:35:21.449Z,0.80
2023-04-07T00:37:50.725Z,0.90
2023-04-07T00:40:21.699Z,1.20
2023-04-07T00:42:51.167Z,6.30
2023-04-07T00:45:20.702Z,1.50
2023-04-07T00:47:49.999Z,1.90
2023-04-07T00:50:20.371Z,2.35
2023-04-07T00:52:49.639Z,3.47
2023-04-07T00:55:20.525Z,0.63
2023-04-07T00:57:50.136Z,0.75
2023-04-07T01:00:19.839Z,1.50
2023-04-07T01:02:57.166Z,0.70
2023-04-07T01:05:33.566Z,0.90
2023-04-07T01:08:10.456Z,0.73
2023-04-07T01:10:46.842Z,0.60
2023-04-07T01:13:25.747Z,1.02
2023-04-07T01:16:04.897Z,1.15
2023-04-07T01:18:39.814Z,0.80
2023-04-07T01:21:15.554Z,0.75
2023-04-07T01:24:02.806Z,1.30
2023-04-07T01:26:35.326Z,1.60
2023-04-07T01:29:36.946Z,1.88
2023-04-07T01:32:09.144Z,1.02
2023-04-07T01:34:39.932Z,0.98
2023-04-07T01:37:10.132Z,1.35
2023-04-07T01:39:41.214Z,0.77
2023-04-07T01:42:11.825Z,0.90
2023-04-07T01:44:43.737Z,0.70
2023-04-07T01:47:13.841Z,1.55
2023-04-07T01:49:44.892Z,2.22
2023-04-07T01:52:14.745Z,0.68
2023-04-07T01:54:44.441Z,0.80
2023-04-07T01:57:13.718Z,1.23
2023-04-07T01:59:45.241Z,0.93
2023-04-07T02:02:14.696Z,1.02
2023-04-07T02:04:53.999Z,1.00
2023-04-07T02:07:28.341Z,2.15
2023-04-07T02:10:00.290Z,1.42
2023-04-07T02:12:31.402Z,1.38
2023-04-07T02:15:15.172Z,1.00
2023-04-07T02:17:49.140Z,1.88
2023-04-07T02:20:19.379Z,0.50
2023-04-07T02:22:48.668Z,0.77
2023-04-07T02:25:28.141Z,1.00
2023-04-07T02:27:58.570Z,1.35
2023-04-07T02:30:29.815Z,1.05
2023-04-07T02:32:59.186Z,1.17
2023-04-07T02:35:28.619Z,1.55
2023-04-07T02:37:57.777Z,1.05
2023-04-07T02:40:27.053Z,0.88
2023-04-07T02:42:56.324Z,1.70
2023-04-07T02:45:25.613Z,1.10
2023-04-07T02:47:56.381Z,0.70
2023-04-07T02:50:26.262Z,0.80
2023-04-07T02:52:55.494Z,1.05
2023-04-07T02:55:24.935Z,1.33
2023-04-07T02:57:54.297Z,1.13
2023-04-07T03:00:35.921Z,0.60
2023-04-07T03:03:14.306Z,0.40
2023-04-07T03:05:48.737Z,0.70
2023-04-07T03:08:17.958Z,0.90
2023-04-07T03:10:47.750Z,0.88
2023-04-07T03:13:19.429Z,0.73
2023-04-07T03:15:48.749Z,1.00
2023-04-07T03:18:20.526Z,0.75
2023-04-07T03:20:50.479Z,0.90
2023-04-07T03:23:20.244Z,0.98
2023-04-07T03:25:49.512Z,0.77
2023-04-07T03:28:19.423Z,0.73
2023-04-07T03:30:48.628Z,0.63
2023-04-07T03:33:19.423Z,0.60
2023-04-07T03:35:48.633Z,1.42
2023-04-07T03:38:17.961Z,1.10
2023-04-07T03:40:48.002Z,1.48
2023-04-07T03:43:17.674Z,0.90
2023-04-07T03:45:48.722Z,0.80
2023-04-07T03:48:21.432Z,0.50
2023-04-07T03:51:00.831Z,0.75
2023-04-07T03:53:30.228Z,0.60
2023-04-07T03:56:01.157Z,0.70
2023-04-07T03:58:47.080Z,1.00
2023-04-07T04:01:22.539Z,1.10
2023-04-07T04:03:54.824Z,1.17
2023-04-07T04:06:29.242Z,1.10
2023-04-07T04:09:06.966Z,0.80
2023-04-07T04:11:39.580Z,0.60
2023-04-07T04:14:08.894Z,1.15
2023-04-07T04:16:39.540Z,1.05
2023-04-07T04:19:20.262Z,0.73
2023-04-07T04:21:50.137Z,0.80
2023-04-07T04:24:19.732Z,0.90
2023-04-07T04:26:49.207Z,0.75
2023-04-07T04:29:18.383Z,0.60
2023-04-07T04:31:48.960Z,0.80
2023-04-07T04:34:20.876Z,0.60
2023-04-07T04:36:51.455Z,0.70
2023-04-07T04:39:22.775Z,0.88
2023-04-07T04:41:52.329Z,0.90
2023-04-07T04:44:23.479Z,1.05
2023-04-07T04:46:53.127Z,0.90
2023-04-07T04:49:24.141Z,0.73
2023-04-07T04:51:54.314Z,0.70
2023-04-07T04:54:23.549Z,0.70
2023-04-07T04:56:52.984Z,1.17
2023-04-07T04:59:22.964Z,0.75
2023-04-07T05:02:00.752Z,1.38
2023-04-07T05:04:31.980Z,1.10
2023-04-07T05:07:15.945Z,1.10
2023-04-07T05:09:45.292Z,1.58
2023-04-07T05:12:14.572Z,2.45
2023-04-07T05:14:49.064Z,1.05
2023-04-07T05:17:18.376Z,0.70
2023-04-07T05:19:49.222Z,0.73
2023-04-07T05:22:29.148Z,1.50
2023-04-07T05:24:58.389Z,2.17
2023-04-07T05:27:27.918Z,5.57
2023-04-07T05:30:01.437Z,4.47
2023-04-07T05:32:34.950Z,5.18
2023-04-07T05:35:12.572Z,4.28
2023-04-07T05:37:48.157Z,3.88
2023-04-07T05:40:17.609Z,5.25
2023-04-07T05:42:46.970Z,3.90
2023-04-07T05:45:19.714Z,2.88
2023-04-07T05:47:52.226Z,1.15
2023-04-07T05:50:29.994Z,2.72
2023-04-07T05:53:02.334Z,2.15
2023-04-07T05:55:33.333Z,1.45
2023-04-07T05:58:02.958Z,2.00
2023-04-07T06:00:35.713Z,2.60
2023-04-07T06:03:10.974Z,2.58
2023-04-07T06:05:53.772Z,2.00
2023-04-07T06:08:24.772Z,0.93
2023-04-07T06:10:55.134Z,6.72
2023-04-07T06:13:24.782Z,2.78
2023-04-07T06:15:57.430Z,4.38
2023-04-07T06:18:26.996Z,2.72
2023-04-07T06:20:57.778Z,6.22
2023-04-07T06:23:28.437Z,3.08
2023-04-07T06:25:57.744Z,8.07
2023-04-07T06:28:27.139Z,4.60
2023-04-07T06:30:59.589Z,4.30
2023-04-07T06:33:29.264Z,2.78
2023-04-07T06:36:00.815Z,2.38
2023-04-07T06:38:30.183Z,2.42
2023-04-07T06:40:59.586Z,5.90
2023-04-07T06:43:28.823Z,1.13
2023-04-07T06:46:05.104Z,2.30
2023-04-07T06:48:34.332Z,7.18
2023-04-07T06:51:05.763Z,5.35
2023-04-07T06:53:35.007Z,2.17
2023-04-07T06:56:08.732Z,2.95
2023-04-07T06:58:38.873Z,2.35
2023-04-07T07:01:08.696Z,5.10
2023-04-07T07:03:38.235Z,5.47
2023-04-07T07:06:09.287Z,2.08
2023-04-07T07:08:38.550Z,4.20
2023-04-07T07:11:08.092Z,3.70
2023-04-07T07:13:37.342Z,5.60
2023-04-07T07:16:07.358Z,3.47
2023-04-07T07:18:38.281Z,1.70
2023-04-07T07:21:09.495Z,3.42
2023-04-07T07:23:38.821Z,1.98
2023-04-07T07:26:08.092Z,2.17
2023-04-07T07:28:37.431Z,1.75
2023-04-07T07:31:13.184Z,2.03
2023-04-07T07:33:44.368Z,1.90
2023-04-07T07:36:15.331Z,2.33
2023-04-07T07:38:44.692Z,1.55
2023-04-07T07:41:14.413Z,2.83
2023-04-07T07:43:43.733Z,1.23
2023-04-07T07:46:12.959Z,2.00
2023-04-07T07:48:42.316Z,0.80
2023-04-07T07:51:11.908Z,2.47
2023-04-07T07:53:42.881Z,1.73
2023-04-07T07:56:12.867Z,0.68
2023-04-07T07:58:43.035Z,1.38
2023-04-07T08:01:13.149Z,1.15
2023-04-07T08:03:42.807Z,0.82
2023-04-07T08:06:12.215Z,1.08
2023-04-07T08:08:43.015Z,1.48
2023-04-07T08:11:12.556Z,4.82
2023-04-07T08:13:45.968Z,1.60
2023-04-07T08:16:15.786Z,1.30
2023-04-07T08:18:45.251Z,1.58
2023-04-07T08:21:14.964Z,1.73
2023-04-07T08:23:46.640Z,1.00
2023-04-07T08:26:16.916Z,1.05
2023-04-07T08:28:46.463Z,0.77
2023-04-07T08:31:16.117Z,1.23
2023-04-07T08:33:46.046Z,1.58
2023-04-07T08:36:15.597Z,1.17
2023-04-07T08:38:46.467Z,1.92
2023-04-07T08:41:21.749Z,1.50
2023-04-07T08:43:52.872Z,0.90
2023-04-07T08:46:24.563Z,1.48
2023-04-07T08:48:54.566Z,2.00
2023-04-07T08:51:30.075Z,0.80
2023-04-07T08:54:07.778Z,1.50
2023-04-07T08:56:41.084Z,1.55
2023-04-07T08:59:12.269Z,1.17
2023-04-07T09:01:42.751Z,2.13
2023-04-07T09:04:12.493Z,1.08
2023-04-07T09:06:41.806Z,0.77
2023-04-07T09:09:13.933Z,1.50
2023-04-07T09:11:44.546Z,1.42
2023-04-07T09:14:13.873Z,1.65
2023-04-07T09:16:43.774Z,0.80
2023-04-07T09:19:13.011Z,1.00
2023-04-07T09:21:52.591Z,1.40
2023-04-07T09:24:25.875Z,6.03
2023-04-07T09:27:10.463Z,7.80
2023-04-07T09:29:40.661Z,4.75
2023-04-07T09:32:10.371Z,2.10
2023-04-07T09:34:41.266Z,2.60
2023-04-07T09:37:23.190Z,2.00
2023-04-07T09:39:55.207Z,5.28
2023-04-07T09:42:24.686Z,3.38
2023-04-07T09:44:53.925Z,3.03
2023-04-07T09:47:29.465Z,2.72
2023-04-07T09:49:59.961Z,3.72
2023-04-07T09:52:53.390Z,1.52
2023-04-07T09:55:25.367Z,1.23
2023-04-07T09:57:56.331Z,1.20
2023-04-07T10:00:26.230Z,1.27
2023-04-07T10:02:56.728Z,0.90
2023-04-07T10:05:26.618Z,2.80
2023-04-07T10:07:55.897Z,2.25
2023-04-07T10:10:29.053Z,4.13
2023-04-07T10:12:59.396Z,3.25
2023-04-07T10:15:28.720Z,2.17
2023-04-07T10:17:58.197Z,9.60
2023-04-07T10:20:28.325Z,18.00
2023-04-07T10:23:08.309Z,12.05
2023-04-07T10:25:41.857Z,10.50
2023-04-07T10:28:13.113Z,14.63
2023-04-07T10:30:43.140Z,15.35
2023-04-07T10:33:12.438Z,12.02
2023-04-07T10:36:07.837Z,10.85
2023-04-07T10:38:37.705Z,4.63
2023-04-07T10:41:37.729Z,8.52
2023-04-07T10:44:48.359Z,8.80
2023-04-07T10:47:17.847Z,7.90
2023-04-07T10:50:20.766Z,7.78
2023-04-07T10:52:50.889Z,11.88
2023-04-07T10:55:39.909Z,4.63
2023-04-07T10:58:22.918Z,5.95
2023-04-07T11:01:23.524Z,7.75
2023-04-07T11:03:59.011Z,9.05
2023-04-07T11:06:28.715Z,9.98
2023-04-07T11:08:57.918Z,7.38
2023-04-07T11:11:42.578Z,1.88
2023-04-07T11:14:13.230Z,3.40
2023-04-07T11:16:45.935Z,2.78
2023-04-07T11:20:09.311Z,10.10
2023-04-07T11:23:36.430Z,4.03
2023-04-07T11:26:49.416Z,4.13
2023-04-07T11:30:01.961Z,4.07
2023-04-07T11:32:42.955Z,3.40
2023-04-07T11:35:12.753Z,2.13
2023-04-07T11:37:48.745Z,2.97
2023-04-07T11:40:34.716Z,2.75
2023-04-07T11:43:04.290Z,2.15
2023-04-07T11:45:34.972Z,2.25
2023-04-07T11:48:04.215Z,2.95
2023-04-07T11:50:43.875Z,1.45
2023-04-07T11:53:13.398Z,4.47
2023-04-07T11:55:42.673Z,3.17
2023-04-07T12:03:27.637Z,3.00
2023-04-07T12:05:58.385Z,1.70
2023-04-07T12:08:42.476Z,2.72
2023-04-07T12:11:12.406Z,1.63
2023-04-07T12:13:41.668Z,1.95
2023-04-07T12:16:10.949Z,1.55
2023-04-07T12:18:40.269Z,1.40
2023-04-07T12:21:11.030Z,5.43
2023-04-07T12:23:41.296Z,2.78
2023-04-07T12:26:11.968Z,4.88
2023-04-07T12:28:41.338Z,3.60
2023-04-07T12:31:11.305Z,3.28
2023-04-07T12:33:40.610Z,2.55
2023-04-07T12:36:11.423Z,1.70
2023-04-07T12:38:40.861Z,2.22
2023-04-07T12:41:10.166Z,2.58
2023-04-07T12:43:39.486Z,2.30
2023-04-07T12:46:08.781Z,1.77
2023-04-07T12:48:38.027Z,1.48
2023-04-07T12:51:07.598Z,3.28
2023-04-07T12:53:38.359Z,2.92
2023-04-07T12:56:08.229Z,2.63
2023-04-07T12:58:37.610Z,1.45
2023-04-07T13:01:07.083Z,3.92
2023-04-07T13:03:36.568Z,1.40
2023-04-07T13:06:06.651Z,1.27
2023-04-07T13:08:37.338Z,2.78
2023-04-07T13:11:06.852Z,1.25
2023-04-07T13:13:36.249Z,3.50
2023-04-07T13:16:05.555Z,2.33
2023-04-07T13:18:35.073Z,0.80
2023-04-07T13:21:40.648Z,1.42
2023-04-07T13:23:55.549Z,1.48
2023-04-07T13:26:34.297Z,3.17
2023-04-07T13:29:03.639Z,1.65
2023-04-07T13:31:33.152Z,3.33
2023-04-07T13:34:02.456Z,1.42
2023-04-07T13:36:31.620Z,1.05
2023-04-07T13:39:02.411Z,2.63
2023-04-07T13:41:31.909Z,2.42
2023-04-07T13:44:09.386Z,1.40
2023-04-07T13:46:41.622Z,0.88
2023-04-07T13:49:10.939Z,1.92
2023-04-07T13:52:36.020Z,1.42
2023-04-07T13:56:30.466Z,1.25
2023-04-07T13:59:35.196Z,1.35
2023-04-07T14:02:07.365Z,1.40
2023-04-07T14:04:36.856Z,2.95
2023-04-07T14:07:06.282Z,1.05
2023-04-07T14:09:35.645Z,0.68
2023-04-07T14:12:05.105Z,1.25
2023-04-07T14:14:37.861Z,1.17
2023-04-07T14:17:07.326Z,0.95
2023-04-07T14:19:36.568Z,1.95
2023-04-07T14:22:05.864Z,1.50
2023-04-07T14:24:35.084Z,2.25
2023-04-07T14:27:05.597Z,0.65
2023-04-07T14:29:36.256Z,2.83
2023-04-07T14:32:05.643Z,8.27
2023-04-07T14:34:35.131Z,10.98
2023-04-07T14:37:06.485Z,8.95
2023-04-07T14:39:37.216Z,7.72
2023-04-07T14:42:07.620Z,4.78
2023-04-07T14:44:38.234Z,3.97
2023-04-07T14:47:07.676Z,5.13
2023-04-07T14:49:37.603Z,3.42
2023-04-07T14:52:07.279Z,1.60
2023-04-07T14:54:36.550Z,4.43
2023-04-07T14:57:05.828Z,1.30
2023-04-07T14:59:35.059Z,3.53
2023-04-07T15:02:05.771Z,6.10
2023-04-07T15:04:35.220Z,5.00
2023-04-07T15:07:05.115Z,1.98
2023-04-07T15:09:34.329Z,4.10
2023-04-07T15:12:05.260Z,4.68
2023-04-07T15:14:34.466Z,6.82
2023-04-07T15:17:05.107Z,7.85
2023-04-07T15:19:34.388Z,3.40
2023-04-07T15:22:08.464Z,3.05
2023-04-07T15:24:37.829Z,5.10
2023-04-07T15:27:18.747Z,6.63
2023-04-07T15:30:07.316Z,2.72
2023-04-07T15:32:40.914Z,4.65
2023-04-07T15:35:11.833Z,4.90
2023-04-07T15:37:41.062Z,6.22
2023-04-07T15:40:11.154Z,4.00
2023-04-07T15:42:42.071Z,2.50
2023-04-07T15:45:12.292Z,3.85
2023-04-07T15:47:46.032Z,3.97
2023-04-07T15:50:15.420Z,4.72
2023-04-07T15:52:44.712Z,3.78
2023-04-07T15:55:13.988Z,5.72
2023-04-07T15:57:43.248Z,2.60
2023-04-07T16:00:13.193Z,2.92
2023-04-07T16:02:42.552Z,3.33
2023-04-07T16:05:13.301Z,6.20
2023-04-07T16:07:42.730Z,2.40
2023-04-07T16:10:13.306Z,4.20
2023-04-07T16:12:43.061Z,5.45
2023-04-07T16:15:12.790Z,4.70
2023-04-07T16:17:44.435Z,5.03
2023-04-07T16:20:15.972Z,2.88
2023-04-07T16:22:46.631Z,4.97
2023-04-07T16:25:17.125Z,3.67
2023-04-07T16:27:47.299Z,5.88
2023-04-07T16:30:18.620Z,5.55
2023-04-07T16:32:47.956Z,3.75
2023-04-07T16:35:18.723Z,3.78
2023-04-07T16:37:49.905Z,2.70
2023-04-07T16:40:19.171Z,3.15
2023-04-07T16:42:48.629Z,2.65
2023-04-07T16:45:18.150Z,1.60
2023-04-07T16:47:47.447Z,4.70
2023-04-07T16:50:18.373Z,6.07
2023-04-07T16:52:48.092Z,6.80
2023-04-07T16:55:17.319Z,4.13
2023-04-07T16:57:46.600Z,6.00
2023-04-07T17:00:16.390Z,9.52
2023-04-07T17:02:45.967Z,3.10
2023-04-07T17:08:44.765Z,6.78
2023-04-07T17:11:45.684Z,4.93
2023-04-07T17:14:15.021Z,4.32
2023-04-07T17:19:34.189Z,3.88
2023-04-07T17:22:05.084Z,2.47
2023-04-07T17:24:34.629Z,5.68
2023-04-07T17:27:10.487Z,4.50
2023-04-07T17:29:39.998Z,4.90
2023-04-07T17:35:50.631Z,4.35
2023-04-07T17:38:21.400Z,7.07
2023-04-07T17:41:02.923Z,4.25
2023-04-07T17:43:56.124Z,5.05
2023-04-07T17:46:23.422Z,4.57
2023-04-07T17:48:59.123Z,6.03
2023-04-07T17:51:29.141Z,3.30
2023-04-07T17:53:59.795Z,4.50
2023-04-07T17:56:30.962Z,5.40
2023-04-07T17:59:00.247Z,5.57
2023-04-07T18:01:29.795Z,8.93
2023-04-07T18:04:15.307Z,4.65
2023-04-07T18:06:45.151Z,6.72
2023-04-07T18:09:16.145Z,4.32
2023-04-07T18:11:45.451Z,7.35
2023-04-07T18:14:14.718Z,9.40
2023-04-07T18:16:44.066Z,9.25
2023-04-07T18:19:13.370Z,7.53
2023-04-07T18:21:42.724Z,5.53
2023-04-07T18:24:12.187Z,4.10
2023-04-07T18:26:43.937Z,4.68
2023-04-07T18:29:14.949Z,7.90
2023-04-07T18:31:44.782Z,4.20
2023-04-07T18:34:14.240Z,4.88
2023-04-07T18:36:43.523Z,3.95
2023-04-07T18:39:13.584Z,4.57
2023-04-07T18:41:46.475Z,1.35
2023-04-07T18:44:16.078Z,3.10
2023-04-07T18:46:46.295Z,4.82
2023-04-07T18:49:15.571Z,1.90
2023-04-07T18:51:46.188Z,3.47
2023-04-07T18:54:15.624Z,4.90
2023-04-07T18:56:46.301Z,2.47
2023-04-07T18:59:15.824Z,6.65
2023-04-07T19:01:45.114Z,3.38
2023-04-07T19:04:15.398Z,1.40
2023-04-07T19:06:44.771Z,4.22
2023-04-07T19:09:14.467Z,2.45
2023-04-07T19:11:45.341Z,3.47
2023-04-07T19:14:14.645Z,4.72
2023-04-07T19:16:44.796Z,2.10
2023-04-07T19:19:19.195Z,2.65
2023-04-07T19:21:48.656Z,2.38
2023-04-07T19:24:17.834Z,1.38
2023-04-07T19:26:48.448Z,3.33
2023-04-07T19:29:17.612Z,4.10
2023-04-07T19:31:47.032Z,3.08
2023-04-07T19:34:16.519Z,4.32
2023-04-07T19:36:45.690Z,1.55
2023-04-07T19:39:14.941Z,5.82
2023-04-07T19:41:44.269Z,1.30
2023-04-07T19:44:15.083Z,5.00
2023-04-07T19:46:44.387Z,6.03
2023-04-07T19:49:13.651Z,3.50
2023-04-07T19:51:43.303Z,3.22
2023-04-07T19:54:12.804Z,5.10
2023-04-07T19:56:41.976Z,3.47
2023-04-07T19:59:11.276Z,1.05
2023-04-07T20:01:42.331Z,1.30
2023-04-07T20:04:14.214Z,8.15
2023-04-07T20:06:43.624Z,3.28
2023-04-07T20:09:12.835Z,3.25
2023-04-07T20:11:42.113Z,3.92
2023-04-07T20:14:11.324Z,2.65
2023-04-07T20:16:42.989Z,3.22
2023-04-07T20:19:12.314Z,1.38
2023-04-07T20:21:41.804Z,2.72
2023-04-07T20:24:12.065Z,4.10
2023-04-07T20:26:41.459Z,6.63
2023-04-07T20:29:22.085Z,6.03
2023-04-07T20:31:53.033Z,3.28
2023-04-07T20:34:22.850Z,3.83
2023-04-07T20:36:52.037Z,1.55
2023-04-07T20:39:21.239Z,3.35
2023-04-07T20:41:51.890Z,2.35
2023-04-07T20:44:21.541Z,5.00
2023-04-07T20:46:50.705Z,3.78
2023-04-07T20:49:21.806Z,5.88
2023-04-07T20:51:51.233Z,2.97
2023-04-07T20:54:20.383Z,3.72
2023-04-07T20:56:49.554Z,3.42
2023-04-07T20:59:18.881Z,3.95
2023-04-07T21:01:48.392Z,4.43
2023-04-07T21:04:18.000Z,6.10
2023-04-07T21:06:48.708Z,3.58
2023-04-07T21:09:18.085Z,6.63
2023-04-07T21:11:47.480Z,2.75
2023-04-07T21:14:16.708Z,7.57
2023-04-07T21:16:45.959Z,2.88
2023-04-07T21:19:15.167Z,1.48
2023-04-07T21:21:44.345Z,4.18
2023-04-07T21:24:15.007Z,2.25
2023-04-07T21:26:44.316Z,9.77
2023-04-07T21:29:13.601Z,2.88
2023-04-07T21:31:42.982Z,3.75
2023-04-07T21:34:12.218Z,3.00
2023-04-07T21:36:41.527Z,3.97
2023-04-07T21:39:10.865Z,3.92
2023-04-07T21:41:42.193Z,4.85
2023-04-07T21:44:13.198Z,6.55
2023-04-07T21:46:42.565Z,2.47
2023-04-07T21:49:11.711Z,5.28
2023-04-07T21:51:41.150Z,3.00
2023-04-07T21:54:10.413Z,3.22
2023-04-07T21:56:40.996Z,2.58
2023-04-07T21:59:10.272Z,4.38
2023-04-07T22:01:39.532Z,2.90
2023-04-07T22:04:08.892Z,3.15
2023-04-07T22:06:40.983Z,2.22
2023-04-07T22:09:14.536Z,2.97
2023-04-07T22:11:45.180Z,4.63
2023-04-07T22:14:14.468Z,1.65
2023-04-07T22:16:43.732Z,3.28
2023-04-07T22:19:12.907Z,5.55
2023-04-07T22:21:42.226Z,4.68
2023-04-07T22:24:11.599Z,3.50
2023-04-07T22:26:40.800Z,6.10
2023-04-07T22:29:12.147Z,4.32
2023-04-07T22:31:41.577Z,4.20
2023-04-07T22:34:11.516Z,4.78
2023-04-07T22:36:40.730Z,2.90
2023-04-07T22:39:10.155Z,7.72
2023-04-07T22:41:39.391Z,2.90
2023-04-07T22:44:08.564Z,5.75
2023-04-07T22:46:39.293Z,7.45
2023-04-07T22:49:08.719Z,5.55
2023-04-07T22:51:38.231Z,4.82
2023-04-07T22:54:07.531Z,4.50
2023-04-07T22:56:36.690Z,3.95
2023-04-07T22:59:06.440Z,3.50
2023-04-07T23:01:35.986Z,5.15
2023-04-07T23:04:06.648Z,2.33
2023-04-07T23:06:35.899Z,3.80
2023-04-07T23:09:05.134Z,1.88
2023-04-07T23:11:34.443Z,4.40
2023-04-07T23:14:06.340Z,3.42
2023-04-07T23:16:36.101Z,2.55
2023-04-07T23:19:07.070Z,5.03
2023-04-07T23:21:36.226Z,1.50
2023-04-07T23:24:05.721Z,2.25
2023-04-07T23:26:35.022Z,1.95
2023-04-07T23:29:04.337Z,2.45
2023-04-07T23:31:33.669Z,2.90
2023-04-07T23:34:02.889Z,2.88
2023-04-07T23:36:33.465Z,1.95
2023-04-07T23:39:03.311Z,2.88
2023-04-07T23:41:33.176Z,2.67
2023-04-07T23:44:02.818Z,1.55
2023-04-07T23:46:32.139Z,1.10
2023-04-07T23:49:01.468Z,1.58
2023-04-07T23:51:30.829Z,0.90
2023-04-07T23:54:01.557Z,2.08
2023-04-07T23:56:30.753Z,1.40
2023-04-07T23:58:59.860Z,3.22
